CheckWX is a tool to help pilots better visualize weather data.  It is not intended as a substitute for an official pre-flight weather briefing.

20:26:45 UTC

KJHW METAR
Chautauqua County / Jamestown Airport
Jamestown, New York, USA
Current

31 mins ago

KJHW 201956Z AUTO 29016KT 6SM RA BR FEW008 BKN047 OVC060 12/11 A2956 RMK AO2 TSB17E32 SLP018 P0004 T01220106
Observed
Apr-20 @ 19:56 UTC
Wind
  • 290° at 16 KTS
Visibility
6 SM
Flight Rules
VFR
Conditions
Rain, Mist
Cloud Levels
  • Few at 800' AGL
  • Broken at 4,700' AGL
  • Overcast at 6,000' AGL
Temperature
12°C / 54°F
Dewpoint
11°C / 52°F
Humidity
94%
Altimeter
29.56" Hg
Pressure
1001.02 hPa
Current Rain
0.04"
Previous

40 mins ago

KJHW 201947Z AUTO 30014KT 5SM RA BR SCT008 BKN043 OVC065 12/11 A2957 RMK AO2 TSB17E32 P0002
Observed
Apr-20 @ 19:47 UTC
Wind
  • 300° at 14 KTS
Visibility
5 SM
Flight Rules
MVFR
Conditions
Rain, Mist
Cloud Levels
  • Scattered at 800' AGL
  • Broken at 4,300' AGL
  • Overcast at 6,500' AGL
Temperature
12°C / 54°F
Dewpoint
11°C / 52°F
Humidity
94%
Altimeter
29.57" Hg
Pressure
1001.32 hPa
Current Rain
0.02"
Previous

1 hour ago

KJHW 201923Z AUTO 33008KT 10SM VCTS SCT020 BKN028 BKN050 13/12 A2957 RMK AO2 LTG DSNT S TSB17RAE14 P0000
Observed
Apr-20 @ 19:23 UTC
Wind
  • 330° at 8 KTS
Visibility
10 SM
Flight Rules
MVFR
Conditions
Area Thunderstorm
Cloud Levels
  • Scattered at 2,000' AGL
  • Broken at 2,800' AGL
  • Broken at 5,000' AGL
Temperature
13°C / 55°F
Dewpoint
12°C / 54°F
Humidity
94%
Altimeter
29.57" Hg
Pressure
1001.32 hPa
Current Rain
0.01"